Time;durP1;ratioP1;P1;durP2;ratioP2;P2;SDS_P1;SDS_P2;PMS_P1;PMS_P2;Temp;Humidity;BMP_temperature;BMP_pressure;BME280_temperature;BME280_humidity;BME280_pressure;Samples;Min_cycle;Max_cycle;Signal;HPM_P1;HPM_P2
2021/12/18 00:02:24;;;;;;;3.05;1.30;;;;;;;3.24;70.62;100772.29;1736380;81;21085;-77
2021/12/18 00:04:50;;;;;;;3.22;1.30;;;;;;;3.24;70.63;100780.21;1733115;82;21319;-72
2021/12/18 00:07:17;;;;;;;2.20;1.00;;;;;;;3.22;70.64;100776.95;1710345;82;21022;-72
2021/12/18 00:09:46;;;;;;;2.67;1.10;;;;;;;3.22;70.52;100784.87;1730827;81;21044;-71
2021/12/18 00:12:13;;;;;;;3.00;1.40;;;;;;;3.21;70.48;100770.86;1711823;82;21674;-72
2021/12/18 00:14:40;;;;;;;2.37;1.30;;;;;;;3.21;70.42;100777.97;1725539;82;21033;-72
2021/12/18 00:17:07;;;;;;;3.70;1.57;;;;;;;3.20;70.31;100784.28;1730343;81;21545;-72
2021/12/18 00:19:35;;;;;;;3.37;1.22;;;;;;;3.21;70.23;100781.94;1732537;82;21640;-72
2021/12/18 00:22:02;;;;;;;2.75;1.30;;;;;;;3.23;70.07;100787.84;1716702;82;21009;-72
2021/12/18 00:24:29;;;;;;;2.58;1.30;;;;;;;3.23;69.86;100791.80;1735388;82;21073;-72
2021/12/18 00:26:56;;;;;;;3.33;1.42;;;;;;;3.23;69.77;100792.60;1735413;82;21034;-72
2021/12/18 00:29:23;;;;;;;3.58;1.77;;;;;;;3.24;69.66;100790.77;1723148;81;21143;-78
2021/12/18 00:31:51;;;;;;;5.15;2.20;;;;;;;3.23;69.53;100797.07;1739244;81;21065;-76
2021/12/18 00:34:20;;;;;;;5.17;2.80;;;;;;;3.23;69.43;100802.35;1721370;81;21097;-75
2021/12/18 00:39:27;;;;;;;6.60;2.60;;;;;;;3.26;69.36;100797.48;1832243;77;22811;-75
2021/12/18 00:42:08;;;;;;;4.33;2.00;;;;;;;3.23;69.15;100807.12;1807135;78;21111;-76
2021/12/18 00:44:29;;;;;;;3.67;1.82;;;;;;;3.20;68.84;100812.80;1773837;80;21939;-76
2021/12/18 00:46:57;;;;;;;3.52;1.60;;;;;;;3.21;68.55;100807.01;1782615;79;21637;-76
2021/12/18 00:49:24;;;;;;;2.27;1.25;;;;;;;3.22;68.52;100813.39;1772320;80;21137;-76
2021/12/18 00:51:51;;;;;;;3.95;1.65;;;;;;;3.23;68.36;100815.55;1767675;79;21086;-76
2021/12/18 00:54:17;;;;;;;3.30;1.50;;;;;;;3.22;68.25;100814.71;1786561;80;20983;-75
2021/12/18 00:56:45;;;;;;;4.25;1.70;;;;;;;3.20;68.19;100806.20;1767241;79;21143;-76
2021/12/18 00:59:11;;;;;;;3.92;1.80;;;;;;;3.20;68.20;100815.95;1759553;80;21039;-76
2021/12/18 01:01:39;;;;;;;3.30;1.55;;;;;;;3.20;68.31;100820.72;1779160;80;21043;-76
2021/12/18 01:04:07;;;;;;;3.10;1.42;;;;;;;3.15;68.36;100811.77;1767931;80;20999;-76
2021/12/18 01:06:34;;;;;;;3.35;1.62;;;;;;;3.15;68.59;100818.38;1768511;79;21601;-77
2021/12/18 01:09:01;;;;;;;4.35;1.82;;;;;;;3.13;68.83;100821.73;1779434;80;21984;-76
2021/12/18 01:11:40;;;;;;;3.58;1.70;;;;;;;3.10;69.02;100812.90;1770717;79;20996;-75
2021/12/18 01:24:55;;;;;;;3.35;1.72;;;;;;;3.01;69.52;100826.27;1788629;80;21031;-77
2021/12/18 01:27:23;;;;;;;3.52;1.85;;;;;;;3.01;69.48;100830.23;1770912;78;21037;-77
2021/12/18 01:29:49;;;;;;;2.90;1.55;;;;;;;2.99;69.53;100813.77;1789640;79;21582;-74
2021/12/18 01:32:16;;;;;;;4.30;1.95;;;;;;;2.98;69.50;100824.54;1773661;79;21121;-75
2021/12/18 01:34:44;;;;;;;3.85;1.82;;;;;;;2.96;69.59;100831.34;1772602;80;21142;-76
2021/12/18 01:37:11;;;;;;;3.58;1.87;;;;;;;2.96;69.50;100825.23;1786290;80;21094;-76
2021/12/18 01:39:37;;;;;;;3.77;1.80;;;;;;;2.94;69.63;100828.09;1777071;79;21086;-75
2021/12/18 01:43:17;;;;;;;3.95;1.92;;;;;;;2.93;69.65;100848.89;1778941;79;21039;-76
2021/12/18 01:44:58;;;;;;;4.25;2.37;;;;;;;2.92;69.55;100825.33;1766040;79;21260;-76
2021/12/18 01:52:41;;;;;;;4.50;2.12;;;;;;;2.95;69.73;100819.66;1778133;79;21003;-73
2021/12/18 01:55:09;;;;;;;3.80;2.02;;;;;;;2.94;69.79;100822.00;1774604;79;21042;-75
2021/12/18 01:57:38;;;;;;;3.83;2.27;;;;;;;2.94;69.88;100832.05;1759970;79;21082;-76
2021/12/18 02:00:20;;;;;;;4.25;2.08;;;;;;;2.94;69.88;100833.87;1771555;79;21079;-75
2021/12/18 02:02:46;;;;;;;4.78;2.50;;;;;;;2.93;69.87;100832.23;1767982;79;22020;-75
2021/12/18 02:05:15;;;;;;;4.50;2.50;;;;;;;2.92;69.90;100829.29;1786729;78;21015;-74
2021/12/18 02:07:43;;;;;;;4.72;2.40;;;;;;;2.93;70.03;100830.43;1792216;78;21038;-74
2021/12/18 02:10:15;;;;;;;4.40;2.52;;;;;;;2.92;69.94;100835.38;1770006;79;21043;-75
2021/12/18 02:12:49;;;;;;;4.03;2.25;;;;;;;2.93;69.94;100836.19;1794077;78;21035;-75
2021/12/18 02:20:47;;;;;;;5.62;3.10;;;;;;;2.87;70.35;100839.14;1764278;80;21022;-77
2021/12/18 02:23:14;;;;;;;5.00;2.87;;;;;;;2.89;70.30;100845.00;1771530;79;21078;-76
2021/12/18 02:25:42;;;;;;;4.58;2.55;;;;;;;2.90;70.30;100843.20;1781762;79;21153;-77
2021/12/18 02:28:19;;;;;;;4.20;2.10;;;;;;;2.89;70.18;100843.69;1756726;80;21582;-77
2021/12/18 02:30:42;;;;;;;5.45;2.42;;;;;;;2.86;69.97;100845.41;1777378;79;21063;-76
2021/12/18 02:33:08;;;;;;;4.17;2.40;;;;;;;2.83;69.91;100849.78;1770547;79;21046;-76
2021/12/18 02:35:43;;;;;;;4.42;2.02;;;;;;;2.81;69.78;100867.11;1764358;79;21086;-77
2021/12/18 02:38:19;;;;;;;3.67;1.90;;;;;;;2.82;69.60;100858.69;1756579;80;21540;-77
2021/12/18 02:40:59;;;;;;;4.15;1.92;;;;;;;2.80;69.37;100851.50;1757788;80;22232;-76
2021/12/18 02:43:25;;;;;;;3.87;1.80;;;;;;;2.82;69.49;100862.14;1769822;79;21020;-76
2021/12/18 02:45:55;;;;;;;4.08;2.22;;;;;;;2.81;69.47;100859.70;1788995;79;21045;-75
2021/12/18 02:48:22;;;;;;;4.62;2.40;;;;;;;2.81;69.28;100868.94;1774030;79;21585;-76
2021/12/18 02:50:48;;;;;;;4.22;2.30;;;;;;;2.78;69.11;100864.87;1778081;79;21097;-76
2021/12/18 02:53:16;;;;;;;4.60;2.40;;;;;;;2.80;69.13;100873.41;1769656;79;21015;-76
2021/12/18 02:55:43;;;;;;;4.58;2.40;;;;;;;2.79;68.96;100861.72;1766948;79;21039;-76
2021/12/18 02:58:10;;;;;;;5.30;2.40;;;;;;;2.80;68.78;100873.92;1771379;79;21039;-76
2021/12/18 03:00:37;;;;;;;4.22;2.10;;;;;;;2.79;68.65;100873.59;1766843;79;21130;-76
2021/12/18 03:03:08;;;;;;;3.35;1.62;;;;;;;2.79;68.59;100872.27;1777911;79;21498;-76
2021/12/18 03:05:39;;;;;;;3.22;1.70;;;;;;;2.79;68.40;100878.87;1781888;78;22238;-76
2021/12/18 03:08:09;;;;;;;2.52;1.40;;;;;;;2.80;68.31;100875.23;1778050;79;21086;-75
2021/12/18 03:19:57;;;;;;;2.75;1.50;;;;;;;2.73;67.69;100878.34;1777356;79;21003;-76
2021/12/18 03:24:27;;;;;;;2.67;1.20;;;;;;;2.73;67.49;100887.56;1795899;78;21007;-77
2021/12/18 03:26:48;;;;;;;2.67;1.22;;;;;;;2.73;67.04;100904.23;1778643;78;20984;-76
2021/12/18 03:29:15;;;;;;;2.30;1.12;;;;;;;2.72;66.52;100901.27;1800942;78;21965;-75
2021/12/18 03:31:43;;;;;;;2.25;0.98;;;;;;;2.71;66.10;100904.11;1800750;78;21715;-76
2021/12/18 03:34:11;;;;;;;1.77;1.00;;;;;;;2.71;65.99;100902.80;1800923;78;21015;-76
2021/12/18 03:36:39;;;;;;;2.55;1.20;;;;;;;2.72;65.92;100918.41;1800578;78;21011;-76
2021/12/18 03:39:06;;;;;;;2.98;1.15;;;;;;;2.71;65.79;100915.98;1801065;78;21560;-77
2021/12/18 03:41:32;;;;;;;2.00;1.02;;;;;;;2.69;65.88;100921.95;1800832;78;21830;-77
2021/12/18 03:44:00;;;;;;;3.33;1.45;;;;;;;2.69;65.97;100918.80;1800903;78;21112;-76
2021/12/18 03:46:27;;;;;;;2.35;1.05;;;;;;;2.69;66.09;100923.27;1800982;78;21034;-76
2021/12/18 03:48:54;;;;;;;2.15;0.80;;;;;;;2.65;66.11;100930.75;1801645;78;21027;-77
2021/12/18 03:51:20;;;;;;;1.90;1.05;;;;;;;2.65;66.06;100929.95;1802226;78;21011;-77
2021/12/18 03:53:47;;;;;;;1.42;0.78;;;;;;;2.65;65.84;100932.58;1802054;78;21549;-76
2021/12/18 03:56:15;;;;;;;2.20;0.90;;;;;;;2.62;65.28;100936.42;1802061;78;21093;-77
2021/12/18 03:58:42;;;;;;;1.90;1.00;;;;;;;2.60;64.75;100941.09;1801826;78;21347;-76
2021/12/18 04:01:08;;;;;;;2.35;1.00;;;;;;;2.59;64.62;100946.84;1802230;78;21003;-77
2021/12/18 04:03:36;;;;;;;1.95;0.90;;;;;;;2.61;64.71;100940.08;1801950;79;21042;-76
2021/12/18 04:06:03;;;;;;;2.00;1.10;;;;;;;2.59;64.42;100950.80;1801881;78;22081;-77
2021/12/18 04:08:32;;;;;;;1.92;0.98;;;;;;;2.60;64.39;100952.95;1780457;79;21090;-76
2021/12/18 04:10:58;;;;;;;1.98;0.90;;;;;;;2.58;64.27;100955.77;1770590;79;21003;-77
2021/12/18 04:13:26;;;;;;;1.60;0.95;;;;;;;2.61;64.28;100952.45;1771575;79;21042;-76
2021/12/18 04:15:52;;;;;;;1.75;0.98;;;;;;;2.59;64.41;100957.39;1769729;79;21018;-76
2021/12/18 04:18:19;;;;;;;2.05;0.98;;;;;;;2.59;64.56;100950.80;1770929;79;21507;-77
2021/12/18 04:20:46;;;;;;;2.40;1.17;;;;;;;2.60;64.62;100946.37;1769448;79;20935;-77
2021/12/18 04:23:13;;;;;;;3.40;0.88;;;;;;;2.59;64.68;100952.13;1771734;78;21063;-76
2021/12/18 04:25:41;;;;;;;1.67;0.80;;;;;;;2.57;64.36;100950.70;1801260;78;21129;-75
2021/12/18 04:28:08;;;;;;;2.62;0.93;;;;;;;2.57;64.45;100975.25;1800992;78;20999;-77
2021/12/18 04:30:35;;;;;;;1.70;1.10;;;;;;;2.57;65.12;100957.30;1802074;78;22109;-77
2021/12/18 04:33:01;;;;;;;1.82;1.02;;;;;;;2.55;65.76;100959.30;1801264;78;21431;-75
2021/12/18 04:35:29;;;;;;;1.75;0.90;;;;;;;2.52;66.32;100974.19;1801446;78;21062;-76
2021/12/18 04:37:55;;;;;;;1.70;1.00;;;;;;;2.47;66.53;100970.83;1800980;78;21094;-77
2021/12/18 04:40:26;;;;;;;2.67;1.00;;;;;;;2.45;66.67;100969.39;1801373;78;21292;-76
2021/12/18 04:42:54;;;;;;;2.10;1.10;;;;;;;2.44;66.75;100968.58;1802277;78;22294;-76
2021/12/18 04:45:21;;;;;;;3.27;1.60;;;;;;;2.44;66.63;100975.67;1802398;78;21039;-76
2021/12/18 04:47:49;;;;;;;3.37;1.72;;;;;;;2.41;66.51;100966.33;1801853;78;20991;-76
2021/12/18 04:50:15;;;;;;;4.58;2.10;;;;;;;2.42;66.53;100965.81;1802518;78;20960;-76
2021/12/18 04:52:42;;;;;;;4.05;2.10;;;;;;;2.41;66.64;100972.91;1801799;78;21070;-77
2021/12/18 04:55:09;;;;;;;4.40;2.40;;;;;;;2.41;66.66;100961.56;1801016;78;21141;-77
2021/12/18 04:57:36;;;;;;;4.35;1.80;;;;;;;2.41;66.64;100976.06;1801166;78;21026;-76
2021/12/18 05:00:05;;;;;;;2.87;1.42;;;;;;;2.41;66.70;100969.47;1801160;78;21050;-77
2021/12/18 05:02:41;;;;;;;2.50;1.42;;;;;;;2.39;66.68;100964.88;1801067;78;20959;-76
2021/12/18 05:05:13;;;;;;;2.58;1.55;;;;;;;2.41;66.36;100973.42;1801086;78;20959;-76
2021/12/18 05:07:40;;;;;;;;;;;;;;;2.40;65.44;100976.54;1804119;78;21096;-76
2021/12/18 05:10:09;;;;;;;2.85;1.47;;;;;;;2.42;65.26;100980.31;1800314;78;20138;-77
2021/12/18 05:12:37;;;;;;;2.35;1.12;;;;;;;2.42;65.13;100987.72;1800892;78;21014;-76
2021/12/18 05:15:06;;;;;;;1.85;0.90;;;;;;;2.43;64.83;100985.89;1801143;78;21055;-75
2021/12/18 05:17:33;;;;;;;1.30;0.90;;;;;;;2.43;64.50;100989.34;1800978;78;21097;-76
2021/12/18 05:20:00;;;;;;;1.45;0.85;;;;;;;2.42;64.45;100993.50;1789270;78;21933;-76
2021/12/18 05:22:27;;;;;;;2.50;1.25;;;;;;;2.41;64.39;100994.01;1791452;79;21061;-75
2021/12/18 05:24:53;;;;;;;2.27;1.20;;;;;;;2.41;64.23;100994.52;1793365;78;20993;-76
2021/12/18 05:27:20;;;;;;;2.52;1.30;;;;;;;2.42;64.18;101002.73;1796422;78;20997;-76
2021/12/18 05:29:47;;;;;;;2.52;1.30;;;;;;;2.41;63.86;101012.97;1824357;78;21445;-76
2021/12/18 05:32:13;;;;;;;2.10;1.07;;;;;;;2.41;63.63;101011.65;1824115;78;21500;-76
2021/12/18 05:34:41;;;;;;;1.55;0.90;;;;;;;2.41;63.35;101015.61;1823558;78;21037;-75
2021/12/18 05:37:18;;;;;;;1.98;0.80;;;;;;;2.40;62.80;101031.09;1823878;78;21073;-76
2021/12/18 05:39:43;;;;;;;1.60;0.80;;;;;;;2.39;62.59;101024.20;1823732;78;21555;-76
2021/12/18 05:42:10;;;;;;;1.07;0.68;;;;;;;2.36;62.47;101025.39;1823817;78;21203;-76
2021/12/18 05:44:37;;;;;;;1.70;0.80;;;;;;;2.36;62.42;101035.93;1823844;78;21079;-76
2021/12/18 05:47:04;;;;;;;1.10;0.70;;;;;;;2.34;62.18;101040.59;1820642;78;21002;-76
2021/12/18 05:49:32;;;;;;;0.85;0.60;;;;;;;2.34;62.24;101051.14;1791557;80;20978;-75
2021/12/18 05:51:59;;;;;;;1.02;0.60;;;;;;;2.31;62.14;101068.66;1791692;80;21002;-76
2021/12/18 05:54:26;;;;;;;1.47;0.60;;;;;;;2.28;61.69;101060.62;1791675;80;21089;-75
2021/12/18 05:56:52;;;;;;;0.88;0.57;;;;;;;2.23;61.30;101065.62;1791603;80;21284;-77
2021/12/18 05:59:19;;;;;;;2.00;0.80;;;;;;;2.22;61.50;101058.73;1791518;80;20959;-77
2021/12/18 06:01:46;;;;;;;1.40;0.80;;;;;;;2.23;61.73;101055.59;1791479;80;21005;-76
2021/12/18 06:04:13;;;;;;;1.02;0.60;;;;;;;2.21;61.83;101057.11;1791562;80;21042;-77
2021/12/18 06:06:39;;;;;;;1.12;0.72;;;;;;;2.18;61.92;101060.13;1791648;78;21064;-76
2021/12/18 06:09:07;;;;;;;1.10;0.55;;;;;;;2.17;62.15;101059.79;1791739;80;21148;-76
2021/12/18 06:11:37;;;;;;;0.82;0.60;;;;;;;2.16;62.18;101061.31;1791615;80;21057;-76
2021/12/18 06:14:02;;;;;;;0.75;0.60;;;;;;;2.17;62.37;101064.25;1791556;80;21069;-76
2021/12/18 06:16:28;;;;;;;1.47;0.53;;;;;;;2.18;62.54;101066.72;1791495;80;21014;-76
2021/12/18 06:18:56;;;;;;;1.05;0.72;;;;;;;2.18;62.56;101072.49;1791564;80;21567;-77
2021/12/18 06:21:23;;;;;;;2.52;0.90;;;;;;;2.19;62.76;101074.11;1791451;80;21317;-77
2021/12/18 06:23:54;;;;;;;4.30;1.20;;;;;;;2.19;62.92;101073.61;1791583;80;20994;-77
2021/12/18 06:26:22;;;;;;;1.67;0.88;;;;;;;2.24;63.05;101080.97;1815631;78;28583;-77
2021/12/18 06:28:49;;;;;;;1.98;1.02;;;;;;;2.27;63.02;101081.88;1802420;78;21006;-77
2021/12/18 06:31:16;;;;;;;2.33;0.90;;;;;;;2.26;62.98;101082.38;1791581;80;20941;-77
2021/12/18 06:33:43;;;;;;;2.20;1.00;;;;;;;2.26;63.06;101083.70;1792736;78;21085;-77
2021/12/18 06:36:10;;;;;;;1.72;1.00;;;;;;;2.26;63.04;101072.34;1791456;80;21497;-76
2021/12/18 06:38:37;;;;;;;2.22;0.90;;;;;;;2.25;63.11;101072.05;1791678;80;20966;-76
2021/12/18 06:41:05;;;;;;;2.67;1.20;;;;;;;2.24;63.10;101074.37;1791550;80;21469;-77
2021/12/18 06:43:34;;;;;;;1.92;0.90;;;;;;;2.21;63.23;101074.75;1791571;80;21002;-77
2021/12/18 06:46:01;;;;;;;2.17;1.10;;;;;;;2.20;63.36;101073.91;1791761;80;21485;-77
2021/12/18 06:48:27;;;;;;;1.67;0.90;;;;;;;2.21;63.51;101076.07;1791623;80;21113;-77
2021/12/18 06:50:54;;;;;;;1.90;0.95;;;;;;;2.22;63.56;101075.87;1791622;80;21037;-77
2021/12/18 06:53:20;;;;;;;2.83;1.15;;;;;;;2.22;63.62;101080.33;1818737;78;21065;-77
2021/12/18 06:55:47;;;;;;;2.10;1.02;;;;;;;2.24;63.76;101075.70;1823851;78;21006;-77
2021/12/18 06:58:14;;;;;;;1.80;1.00;;;;;;;2.26;63.94;101077.63;1823896;78;21825;-77
2021/12/18 07:00:40;;;;;;;3.62;1.15;;;;;;;2.27;64.08;101084.03;1823914;78;21498;-77
2021/12/18 07:03:08;;;;;;;4.50;1.52;;;;;;;2.30;64.22;101092.05;1798514;78;21465;-77
2021/12/18 07:05:35;;;;;;;3.83;2.00;;;;;;;2.31;64.42;101087.92;1793225;78;21610;-76
2021/12/18 07:08:02;;;;;;;4.30;2.02;;;;;;;2.32;64.93;101097.95;1791451;80;20957;-76
2021/12/18 07:10:31;;;;;;;4.35;2.20;;;;;;;2.30;65.54;101091.56;1792994;78;21140;-76
2021/12/18 07:12:58;;;;;;;3.72;2.12;;;;;;;2.29;65.95;101107.55;1791238;80;20955;-77
2021/12/18 07:15:25;;;;;;;4.33;2.58;;;;;;;2.24;66.01;101091.51;1794665;78;21481;-76
2021/12/18 07:17:53;;;;;;;4.58;2.02;;;;;;;2.22;66.17;101099.59;1793936;79;21030;-76
2021/12/18 07:20:19;;;;;;;3.85;1.85;;;;;;;2.19;66.00;101092.56;1800812;78;21065;-76
2021/12/18 07:22:46;;;;;;;3.12;1.60;;;;;;;2.19;65.89;101097.33;1823812;78;21490;-76
2021/12/18 07:25:12;;;;;;;3.58;1.90;;;;;;;2.18;65.90;101097.02;1824009;78;21220;-76
2021/12/18 07:27:39;;;;;;;3.70;1.75;;;;;;;2.19;65.84;101097.83;1823880;78;20983;-76
2021/12/18 07:30:08;;;;;;;3.67;1.47;;;;;;;2.18;65.68;101073.81;1823640;78;21028;-76
2021/12/18 07:32:34;;;;;;;2.52;1.32;;;;;;;2.17;65.35;101094.56;1823827;78;21084;-76
2021/12/18 07:35:02;;;;;;;3.37;1.55;;;;;;;2.17;65.17;101098.52;1823832;78;22011;-76
2021/12/18 07:37:29;;;;;;;3.65;1.55;;;;;;;2.19;65.26;101099.96;1823663;78;21033;-77
2021/12/18 07:39:56;;;;;;;3.52;1.80;;;;;;;2.25;65.23;101107.63;1823746;78;20998;-76
2021/12/18 07:42:23;;;;;;;4.83;1.95;;;;;;;2.27;65.25;101113.03;1824053;78;21418;-78
2021/12/18 07:44:49;;;;;;;4.95;2.37;;;;;;;2.29;65.11;101112.83;1824374;78;21002;-77
2021/12/18 07:47:17;;;;;;;3.95;2.00;;;;;;;2.33;65.17;101114.88;1823780;78;21539;-77
2021/12/18 07:49:45;;;;;;;4.15;2.02;;;;;;;2.37;64.79;101125.90;1823808;78;21658;-76
2021/12/18 07:52:13;;;;;;;5.28;2.12;;;;;;;2.36;64.44;101121.61;1823876;78;21018;-77
2021/12/18 07:54:40;;;;;;;3.83;1.77;;;;;;;2.33;64.47;101124.11;1823982;78;21057;-77
2021/12/18 07:57:07;;;;;;;3.80;1.80;;;;;;;2.32;64.52;101121.17;1823913;78;21005;-76
2021/12/18 07:59:35;;;;;;;3.35;1.55;;;;;;;2.34;64.60;101122.31;1823871;78;21130;-77
2021/12/18 08:02:04;;;;;;;3.17;1.40;;;;;;;2.36;64.45;101125.56;1823656;78;21096;-76
2021/12/18 08:04:33;;;;;;;3.02;1.47;;;;;;;2.39;64.29;101132.28;1823900;78;21517;-77
2021/12/18 08:07:01;;;;;;;2.95;1.50;;;;;;;2.37;63.90;101127.22;1823719;78;21042;-76
2021/12/18 08:09:28;;;;;;;1.62;0.80;;;;;;;2.34;63.80;101130.23;1823916;78;21053;-77
2021/12/18 08:11:55;;;;;;;2.42;0.98;;;;;;;2.30;63.60;101138.17;1823674;78;21158;-76
2021/12/18 08:14:22;;;;;;;2.20;1.10;;;;;;;2.28;63.58;101133.61;1823209;78;21560;-77
2021/12/18 08:16:50;;;;;;;3.05;1.30;;;;;;;2.28;63.52;101133.61;1796939;78;21615;-77
2021/12/18 08:19:17;;;;;;;2.60;1.22;;;;;;;2.26;63.41;101132.47;1793165;78;20956;-77
2021/12/18 08:21:44;;;;;;;2.10;1.10;;;;;;;2.24;63.33;101149.50;1791318;80;21022;-77
2021/12/18 08:24:11;;;;;;;2.75;1.22;;;;;;;2.22;63.42;101144.90;1791255;80;21537;-77
2021/12/18 08:26:38;;;;;;;1.98;0.98;;;;;;;2.24;63.69;101135.81;1791240;80;21182;-77
2021/12/18 08:29:05;;;;;;;2.17;0.93;;;;;;;2.29;63.62;101134.73;1791715;80;21107;-77
2021/12/18 08:31:32;;;;;;;2.02;1.20;;;;;;;2.32;63.60;101133.55;1791286;80;21030;-77
2021/12/18 08:33:59;;;;;;;2.20;1.10;;;;;;;2.37;63.41;101140.88;1791370;80;21544;-77
2021/12/18 08:36:26;;;;;;;2.87;1.20;;;;;;;2.39;63.26;101119.91;1791408;80;21463;-77
2021/12/18 08:38:52;;;;;;;1.82;0.82;;;;;;;2.41;63.31;101119.23;1791747;80;21028;-76
2021/12/18 08:41:20;;;;;;;1.67;0.90;;;;;;;2.44;63.22;101113.59;1791361;80;20982;-76
2021/12/18 08:43:48;;;;;;;2.25;1.05;;;;;;;2.48;63.04;101112.70;1791450;80;20986;-77
2021/12/18 08:46:16;;;;;;;2.80;1.30;;;;;;;2.46;62.92;101112.06;1791759;80;21057;-76
2021/12/18 08:48:42;;;;;;;3.50;1.35;;;;;;;2.44;62.84;101110.95;1791397;80;21094;-77
2021/12/18 08:51:09;;;;;;;2.65;1.22;;;;;;;2.43;62.92;101107.98;1800414;78;21046;-76
2021/12/18 08:53:36;;;;;;;1.85;1.02;;;;;;;2.43;62.83;101100.06;1822729;78;21018;-77
2021/12/18 08:56:05;;;;;;;2.17;1.07;;;;;;;2.42;62.55;101098.45;1823798;78;21061;-77
2021/12/18 08:58:32;;;;;;;1.92;0.90;;;;;;;2.37;62.39;101099.53;1822442;78;21095;-78
2021/12/18 09:00:59;;;;;;;2.75;1.15;;;;;;;2.37;62.43;101099.53;1824255;78;21524;-77
2021/12/18 09:03:25;;;;;;;1.87;0.90;;;;;;;2.37;62.41;101102.65;1818165;78;21002;-78
2021/12/18 09:05:52;;;;;;;2.65;1.15;;;;;;;2.40;62.57;101105.72;1793500;78;21009;-78
2021/12/18 09:08:20;;;;;;;2.72;1.30;;;;;;;2.44;62.67;101105.67;1791555;80;21097;-78
2021/12/18 09:10:46;;;;;;;5.37;1.50;;;;;;;2.48;62.75;101112.19;1791747;80;21091;-78
2021/12/18 09:13:13;;;;;;;3.00;1.42;;;;;;;2.47;62.68;101113.20;1791311;80;21068;-78
2021/12/18 09:15:40;;;;;;;2.85;1.40;;;;;;;2.47;62.79;101108.41;1791536;80;21466;-78
2021/12/18 09:18:07;;;;;;;3.92;2.15;;;;;;;2.43;62.81;101107.98;1791535;80;21029;-78
2021/12/18 09:20:34;;;;;;;6.03;2.67;;;;;;;2.43;63.36;101111.94;1761668;80;21041;-78
2021/12/18 09:23:01;;;;;;;5.37;3.02;;;;;;;2.43;64.21;101104.02;1791666;80;21062;-77
2021/12/18 09:25:28;;;;;;;5.05;2.50;;;;;;;2.46;65.41;101108.92;1791670;80;21208;-78
2021/12/18 09:27:56;;;;;;;4.35;2.50;;;;;;;2.42;65.91;101103.72;1791240;80;21032;-77
2021/12/18 09:30:24;;;;;;;4.37;2.65;;;;;;;2.40;66.42;101100.45;1791722;80;21088;-78
2021/12/18 09:32:51;;;;;;;6.53;3.67;;;;;;;2.38;66.72;101103.80;1791623;80;21014;-77
2021/12/18 09:35:18;;;;;;;3.52;2.10;;;;;;;2.39;67.07;101092.23;1791386;80;21010;-77
2021/12/18 09:37:44;;;;;;;4.90;2.77;;;;;;;2.41;67.46;101102.61;1791757;80;21478;-77
2021/12/18 09:40:12;;;;;;;6.00;2.62;;;;;;;2.44;67.76;101100.91;1791506;80;21093;-78
2021/12/18 09:42:40;;;;;;;5.45;2.40;;;;;;;2.45;67.97;101094.11;1791582;80;21044;-77
2021/12/18 09:45:07;;;;;;;4.67;2.37;;;;;;;2.49;68.15;101104.59;1791362;80;21002;-77
2021/12/18 09:47:35;;;;;;;3.60;1.92;;;;;;;2.49;68.24;101100.63;1791640;80;21568;-77
2021/12/18 09:50:03;;;;;;;5.30;2.20;;;;;;;2.47;68.45;101097.39;1817133;78;21002;-77
2021/12/18 09:52:31;;;;;;;6.28;2.10;;;;;;;2.42;68.76;101105.04;1823849;78;21529;-77
2021/12/18 09:54:59;;;;;;;3.95;2.37;;;;;;;2.37;69.21;101101.33;1823899;78;21085;-77
2021/12/18 09:57:26;;;;;;;4.83;3.08;;;;;;;2.31;69.67;101095.02;1816713;78;21477;-76
2021/12/18 09:59:53;;;;;;;4.58;2.85;;;;;;;2.24;69.93;101104.69;1799611;78;21029;-76
2021/12/18 10:02:21;;;;;;;4.72;2.90;;;;;;;2.18;70.07;101099.66;1791446;78;21142;-76
2021/12/18 10:04:51;;;;;;;5.22;2.70;;;;;;;2.10;70.12;101097.94;1791547;80;20990;-76
2021/12/18 10:07:26;;;;;;;4.50;2.75;;;;;;;2.04;70.29;101097.87;1791616;80;21077;-76
2021/12/18 10:09:58;;;;;;;5.00;2.50;;;;;;;1.98;70.58;101089.43;1791596;80;21029;-76
2021/12/18 10:12:29;;;;;;;4.53;2.22;;;;;;;1.93;70.83;101083.38;1791424;80;20997;-75
2021/12/18 10:15:02;;;;;;;6.35;2.80;;;;;;;1.91;71.12;101082.77;1791954;80;21206;-75
2021/12/18 10:17:39;;;;;;;6.05;3.40;;;;;;;1.90;71.35;101077.17;1791551;80;21458;-74
2021/12/18 10:20:23;;;;;;;6.87;3.60;;;;;;;1.90;71.54;101071.09;1791984;80;21057;-74
2021/12/18 10:22:54;;;;;;;6.12;3.67;;;;;;;1.92;71.73;101065.14;1791616;80;21108;-76
2021/12/18 10:25:33;;;;;;;7.83;4.03;;;;;;;1.95;71.78;101066.91;1792056;80;21516;-75
2021/12/18 10:28:22;;;;;;;6.33;4.40;;;;;;;2.04;71.83;101067.09;1791001;80;21610;-75
2021/12/18 10:30:52;;;;;;;7.25;4.78;;;;;;;2.09;71.76;101058.11;1789867;80;21056;-73
2021/12/18 10:33:22;;;;;;;9.35;4.85;;;;;;;2.13;71.74;101051.95;1791419;80;21441;-75
2021/12/18 10:35:55;;;;;;;6.67;4.80;;;;;;;2.19;71.65;101049.08;1791144;80;20982;-75
2021/12/18 10:38:54;;;;;;;6.90;4.50;;;;;;;2.23;71.63;101043.73;1791260;80;21400;-75
2021/12/18 10:41:30;;;;;;;6.65;4.17;;;;;;;2.31;71.68;101040.98;1790247;80;21232;-75
2021/12/18 10:44:10;;;;;;;7.03;3.95;;;;;;;2.43;71.72;101035.48;1791332;80;21554;-76
2021/12/18 10:46:41;;;;;;;5.55;3.62;;;;;;;2.56;71.65;101038.72;1791299;80;21135;-75
2021/12/18 10:49:14;;;;;;;4.67;2.35;;;;;;;2.63;71.36;101030.84;1791444;80;20994;-75
2021/12/18 10:51:44;;;;;;;4.58;2.12;;;;;;;2.62;70.88;101030.04;1791564;80;21005;-75
2021/12/18 10:54:22;;;;;;;4.15;2.30;;;;;;;2.61;70.37;101033.69;1791471;80;21131;-75
2021/12/18 10:56:52;;;;;;;3.67;2.12;;;;;;;2.62;70.28;101033.19;1788596;80;21006;-74
2021/12/18 10:59:36;;;;;;;3.42;1.80;;;;;;;2.63;70.23;101033.48;1791510;80;21045;-74
2021/12/18 11:02:13;;;;;;;3.72;2.02;;;;;;;2.62;69.89;101033.19;1814761;78;21607;-75
2021/12/18 11:04:42;;;;;;;3.87;2.00;;;;;;;2.56;69.75;101034.25;1820179;78;21520;-75
2021/12/18 11:07:20;;;;;;;4.15;1.90;;;;;;;2.54;69.76;101028.38;1791769;80;21107;-76
2021/12/18 11:10:11;;;;;;;4.30;2.40;;;;;;;2.55;69.77;101027.86;1798556;78;21040;-75
2021/12/18 11:14:48;;;;;;;4.67;2.67;;;;;;;2.55;69.70;101023.41;1751571;80;21003;-75
2021/12/18 11:17:15;;;;;;;3.92;2.45;;;;;;;2.54;69.66;101028.38;1791336;80;20987;-74
2021/12/18 11:19:42;;;;;;;5.62;2.80;;;;;;;2.52;69.66;101026.42;1791519;80;21133;-75
2021/12/18 11:22:13;;;;;;;6.60;3.47;;;;;;;2.55;69.73;101023.41;1791349;80;20991;-75
2021/12/18 11:25:05;;;;;;;8.03;4.25;;;;;;;2.61;69.79;101026.30;1791890;80;21534;-76
2021/12/18 11:27:34;;;;;;;7.30;4.67;;;;;;;2.61;69.74;101022.33;1794743;78;21066;-76
2021/12/18 11:30:13;;;;;;;7.45;4.12;;;;;;;2.65;69.65;101021.74;1817281;78;20982;-76
2021/12/18 11:32:46;;;;;;;6.95;4.80;;;;;;;2.66;69.23;101033.10;1808623;78;20946;-75
2021/12/18 11:35:17;;;;;;;7.30;4.55;;;;;;;2.66;69.11;101033.10;1824150;78;21033;-75
2021/12/18 11:37:54;;;;;;;7.80;4.53;;;;;;;2.65;69.00;101018.30;1824007;78;21084;-76
2021/12/18 11:40:28;;;;;;;5.83;3.75;;;;;;;2.67;68.96;101019.73;1822232;78;21053;-76
2021/12/18 11:42:54;;;;;;;5.85;3.15;;;;;;;2.68;68.38;101015.27;1793897;78;20954;-77
2021/12/18 11:45:30;;;;;;;5.90;3.25;;;;;;;2.69;68.09;101011.62;1823936;78;21670;-76
2021/12/18 11:47:59;;;;;;;4.92;2.75;;;;;;;2.70;67.85;101005.33;1821362;78;20942;-75
2021/12/18 11:50:35;;;;;;;6.22;3.05;;;;;;;2.71;67.50;101004.34;1824213;78;21516;-77
2021/12/18 11:53:11;;;;;;;6.15;2.92;;;;;;;2.74;67.36;101002.63;1823801;78;21013;-77
2021/12/18 11:55:52;;;;;;;5.20;2.20;;;;;;;2.76;67.09;101003.23;1824151;78;21061;-76
2021/12/18 11:58:29;;;;;;;5.55;2.47;;;;;;;2.81;66.57;101003.48;1823697;78;21128;-76
2021/12/18 12:01:15;;;;;;;4.95;2.30;;;;;;;2.82;65.67;101001.14;1823892;78;20966;-76
2021/12/18 12:03:55;;;;;;;3.87;2.20;;;;;;;2.82;64.80;100999.83;1796908;78;21441;-76
2021/12/18 12:06:37;;;;;;;6.28;2.35;;;;;;;2.81;64.13;101004.80;1822606;78;21076;-76
2021/12/18 12:09:34;;;;;;;3.83;1.98;;;;;;;2.79;63.90;100997.58;1821670;78;20993;-75
2021/12/18 12:12:01;;;;;;;3.98;2.08;;;;;;;2.79;63.60;100994.94;1823746;78;21130;-76
2021/12/18 12:14:31;;;;;;;4.95;2.12;;;;;;;2.77;63.27;101006.20;1823794;78;21022;-76
2021/12/18 12:17:14;;;;;;;2.98;1.47;;;;;;;2.74;63.27;101000.80;1823944;78;21085;-76
2021/12/18 12:19:47;;;;;;;3.72;1.67;;;;;;;2.75;62.28;100991.06;1823934;78;20997;-75
2021/12/18 12:22:36;;;;;;;2.92;1.30;;;;;;;2.73;61.52;100992.59;1823871;78;20994;-75